createdAt,value
2023-02-13T00:00:30.878Z,114.63
2023-02-13T00:02:57.838Z,119.38
2023-02-13T00:05:24.885Z,115.47
2023-02-13T00:07:51.893Z,121.13
2023-02-13T00:10:18.819Z,94.03
2023-02-13T00:12:45.756Z,92.45
2023-02-13T00:15:12.608Z,92.20
2023-02-13T00:17:39.439Z,99.57
2023-02-13T00:20:07.164Z,92.78
2023-02-13T00:22:38.372Z,102.85
2023-02-13T00:25:06.418Z,94.05
2023-02-13T00:27:33.647Z,92.15
2023-02-13T00:30:00.616Z,73.43
2023-02-13T00:32:27.434Z,77.63
2023-02-13T00:34:55.826Z,75.30
2023-02-13T00:37:23.287Z,82.18
2023-02-13T00:39:52.288Z,67.53
2023-02-13T00:42:20.590Z,69.85
2023-02-13T00:44:47.479Z,60.28
2023-02-13T00:47:14.959Z,53.33
2023-02-13T00:49:42.018Z,54.90
2023-02-13T00:52:08.916Z,58.00
2023-02-13T00:54:35.700Z,48.72
2023-02-13T00:57:03.102Z,46.47
2023-02-13T00:59:30.193Z,57.42
2023-02-13T01:01:57.109Z,48.65
2023-02-13T01:04:24.060Z,54.38
2023-02-13T01:06:51.118Z,49.28
2023-02-13T01:09:18.036Z,50.05
2023-02-13T01:11:44.927Z,49.10
2023-02-13T01:14:11.875Z,45.83
2023-02-13T01:16:39.924Z,42.85
2023-02-13T01:19:06.719Z,44.65
2023-02-13T01:21:33.526Z,34.38
2023-02-13T01:24:04.553Z,39.55
2023-02-13T01:28:58.214Z,28.77
2023-02-13T01:31:26.337Z,30.65
2023-02-13T01:33:56.501Z,33.28
2023-02-13T01:36:23.868Z,35.77
2023-02-13T01:38:55.061Z,36.42
2023-02-13T01:41:22.762Z,45.25
2023-02-13T01:43:55.420Z,44.72
2023-02-13T01:46:28.076Z,44.55
2023-02-13T01:48:59.041Z,72.53
2023-02-13T01:51:32.067Z,68.35
2023-02-13T01:54:04.298Z,56.65
2023-02-13T01:56:31.781Z,57.65
2023-02-13T01:59:02.830Z,81.97
2023-02-13T02:04:09.477Z,65.25
2023-02-13T02:06:45.016Z,33.10
2023-02-13T02:09:20.808Z,31.50
2023-02-13T02:12:00.829Z,34.80
2023-02-13T02:14:28.518Z,33.85
2023-02-13T02:16:57.613Z,36.47
2023-02-13T02:19:33.914Z,31.50
2023-02-13T02:22:15.786Z,31.90
2023-02-13T02:25:04.462Z,33.50
2023-02-13T02:27:35.034Z,26.95
2023-02-13T02:30:07.919Z,30.15
2023-02-13T02:32:47.623Z,35.92
2023-02-13T02:35:51.032Z,41.88
2023-02-13T02:38:27.296Z,38.17
2023-02-13T02:41:05.177Z,33.63
2023-02-13T02:43:59.226Z,32.97
2023-02-13T02:46:39.824Z,34.00
2023-02-13T02:49:38.487Z,34.47
2023-02-13T02:52:47.334Z,25.88
2023-02-13T02:55:18.217Z,26.42
2023-02-13T02:58:36.062Z,29.52
2023-02-13T03:01:26.258Z,29.63
2023-02-13T03:04:16.228Z,35.38
2023-02-13T03:06:57.854Z,30.58
2023-02-13T03:09:54.300Z,32.75
2023-02-13T03:12:42.219Z,34.40
2023-02-13T03:15:09.995Z,39.33
2023-02-13T03:17:56.216Z,36.05
2023-02-13T03:21:03.840Z,46.08
2023-02-13T03:24:11.899Z,42.03
2023-02-13T03:27:08.480Z,44.60
2023-02-13T03:30:07.412Z,36.83
2023-02-13T03:33:12.464Z,33.35
2023-02-13T03:36:30.418Z,29.25
2023-02-13T03:39:48.752Z,28.70
2023-02-13T03:42:35.648Z,25.33
2023-02-13T03:45:28.232Z,23.80
2023-02-13T03:47:58.063Z,24.23
2023-02-13T03:50:27.558Z,25.63
2023-02-13T03:53:11.727Z,32.40
2023-02-13T03:56:03.996Z,32.70
2023-02-13T03:58:53.689Z,29.85
2023-02-13T04:01:26.514Z,30.70
2023-02-13T04:03:56.341Z,26.80
2023-02-13T04:06:31.660Z,27.80
2023-02-13T04:08:59.098Z,28.90
2023-02-13T04:11:35.304Z,31.45
2023-02-13T04:14:13.927Z,30.23
2023-02-13T04:16:45.777Z,32.85
2023-02-13T04:19:13.362Z,32.20
2023-02-13T04:21:41.234Z,29.98
2023-02-13T04:24:08.870Z,47.75
2023-02-13T04:26:39.719Z,45.22
2023-02-13T04:29:06.637Z,41.60
2023-02-13T04:31:33.750Z,48.72
2023-02-13T04:34:01.007Z,47.53
2023-02-13T04:36:28.158Z,62.47
2023-02-13T04:38:55.062Z,74.22
2023-02-13T04:41:22.011Z,84.75
2023-02-13T04:43:49.228Z,78.15
2023-02-13T04:46:16.131Z,78.88
2023-02-13T04:48:42.919Z,79.53
2023-02-13T04:51:09.695Z,87.93
2023-02-13T04:53:36.699Z,50.17
2023-02-13T04:56:03.790Z,61.28
2023-02-13T04:58:30.897Z,40.22
2023-02-13T05:00:58.000Z,32.75
2023-02-13T05:03:25.102Z,43.03
2023-02-13T05:05:51.920Z,42.17
2023-02-13T05:08:18.862Z,37.83
2023-02-13T05:10:45.643Z,33.20
2023-02-13T05:13:12.935Z,28.05
2023-02-13T05:15:40.041Z,28.52
2023-02-13T05:18:07.051Z,29.90
2023-02-13T05:20:34.108Z,27.63
2023-02-13T05:23:19.620Z,31.30
2023-02-13T05:25:46.763Z,29.90
2023-02-13T05:28:32.799Z,35.13
2023-02-13T05:31:00.269Z,31.42
2023-02-13T05:33:27.741Z,50.03
2023-02-13T05:35:54.720Z,54.63
2023-02-13T05:38:21.749Z,99.20
2023-02-13T05:40:49.015Z,89.80
2023-02-13T05:43:16.045Z,78.75
2023-02-13T05:45:42.932Z,73.47
2023-02-13T05:48:09.692Z,73.60
2023-02-13T05:50:36.758Z,56.97
2023-02-13T05:53:03.874Z,72.07
2023-02-13T05:55:31.166Z,88.80
2023-02-13T05:57:59.238Z,80.82
2023-02-13T06:00:26.191Z,92.15
2023-02-13T06:02:53.235Z,80.80
2023-02-13T06:05:20.240Z,82.78
2023-02-13T06:07:47.174Z,82.97
2023-02-13T06:10:14.169Z,75.47
2023-02-13T06:12:42.793Z,65.32
2023-02-13T06:15:16.469Z,70.32
2023-02-13T06:17:43.490Z,72.57
2023-02-13T06:20:10.656Z,79.30
2023-02-13T06:22:37.623Z,81.70
2023-02-13T06:25:04.913Z,83.40
2023-02-13T06:27:31.838Z,103.78
2023-02-13T06:29:58.669Z,95.18
2023-02-13T06:32:25.526Z,192.80
2023-02-13T06:34:52.452Z,248.57
2023-02-13T06:37:19.315Z,213.10
2023-02-13T06:39:46.287Z,158.48
2023-02-13T06:42:13.312Z,138.18
2023-02-13T06:44:40.293Z,126.03
2023-02-13T06:47:07.283Z,104.53
2023-02-13T06:49:34.304Z,96.68
2023-02-13T06:52:01.210Z,59.80
2023-02-13T06:54:44.784Z,58.10
2023-02-13T06:57:13.733Z,56.50
2023-02-13T06:59:40.655Z,54.75
2023-02-13T07:02:09.191Z,63.92
2023-02-13T07:04:36.247Z,61.78
2023-02-13T07:07:03.289Z,43.50
2023-02-13T07:09:31.772Z,38.25
2023-02-13T07:11:58.970Z,43.28
2023-02-13T07:14:25.949Z,44.92
2023-02-13T07:16:52.754Z,51.00
2023-02-13T07:19:19.511Z,36.08
2023-02-13T07:21:46.644Z,35.83
2023-02-13T07:24:13.807Z,40.22
2023-02-13T07:26:40.768Z,48.53
2023-02-13T07:29:12.140Z,47.58
2023-02-13T07:31:40.147Z,36.47
2023-02-13T07:34:07.925Z,18.13
2023-02-13T07:36:35.185Z,18.60
2023-02-13T07:39:02.284Z,22.13
2023-02-13T07:41:29.368Z,20.90
2023-02-13T07:43:56.516Z,30.20
2023-02-13T07:46:23.402Z,34.65
2023-02-13T07:48:52.580Z,58.97
2023-02-13T07:51:19.902Z,66.30
2023-02-13T07:53:46.784Z,68.72
2023-02-13T07:56:14.946Z,100.35
2023-02-13T07:58:42.006Z,106.72
2023-02-13T08:01:15.058Z,92.03
2023-02-13T08:03:42.300Z,83.35
2023-02-13T08:06:14.148Z,56.28
2023-02-13T08:08:41.410Z,55.03
2023-02-13T08:11:51.922Z,56.58
2023-02-13T08:14:18.751Z,40.10
2023-02-13T08:16:45.750Z,44.67
2023-02-13T08:19:12.594Z,27.90
2023-02-13T08:21:40.770Z,28.15
2023-02-13T08:24:08.188Z,21.98
2023-02-13T08:26:35.183Z,21.75
2023-02-13T08:29:02.434Z,18.92
2023-02-13T08:31:29.376Z,17.65
2023-02-13T08:33:57.563Z,17.70
2023-02-13T08:36:25.350Z,12.32
2023-02-13T08:38:52.668Z,11.90
2023-02-13T08:41:21.179Z,12.10
2023-02-13T08:43:52.463Z,9.60
2023-02-13T08:48:46.503Z,10.40
2023-02-13T08:51:14.713Z,13.35
2023-02-13T08:53:42.639Z,15.40
2023-02-13T08:56:10.063Z,16.98
2023-02-13T08:58:37.088Z,25.05
2023-02-13T09:01:08.625Z,24.40
2023-02-13T09:03:36.732Z,18.05
2023-02-13T09:06:03.832Z,15.32
2023-02-13T09:08:31.258Z,16.85
2023-02-13T09:11:02.177Z,14.25
2023-02-13T09:13:30.472Z,17.25
2023-02-13T09:16:02.410Z,19.65
2023-02-13T09:18:29.390Z,21.65
2023-02-13T09:21:23.754Z,17.17
2023-02-13T09:23:51.680Z,21.33
2023-02-13T09:26:20.696Z,15.40
2023-02-13T09:28:47.777Z,20.75
2023-02-13T09:31:17.902Z,17.27
2023-02-13T09:33:46.545Z,15.10
2023-02-13T09:36:16.276Z,12.63
2023-02-13T09:38:44.336Z,9.98
2023-02-13T09:41:33.972Z,10.25
2023-02-13T09:44:34.332Z,9.98
2023-02-13T09:47:04.303Z,14.55
2023-02-13T09:49:35.430Z,16.73
2023-02-13T09:52:02.565Z,14.35
2023-02-13T09:54:32.242Z,12.40
2023-02-13T09:57:05.432Z,15.77
2023-02-13T09:59:50.952Z,15.38
2023-02-13T10:02:46.116Z,18.98
2023-02-13T10:05:37.971Z,20.35
2023-02-13T10:08:21.492Z,19.48
2023-02-13T10:10:54.780Z,21.63
2023-02-13T10:13:49.251Z,21.40
2023-02-13T10:16:51.021Z,24.35
2023-02-13T10:19:38.002Z,21.25
2023-02-13T10:22:12.238Z,32.92
2023-02-13T10:24:52.643Z,40.30
2023-02-13T10:27:25.139Z,22.02
2023-02-13T10:30:07.071Z,21.95
2023-02-13T10:32:43.857Z,21.23
2023-02-13T10:35:38.873Z,18.77
2023-02-13T10:38:16.299Z,20.80
2023-02-13T10:40:53.896Z,25.77
2023-02-13T10:43:27.711Z,23.30
2023-02-13T10:46:03.780Z,23.83
2023-02-13T10:48:59.370Z,24.25
2023-02-13T10:52:05.079Z,23.75
2023-02-13T10:55:01.526Z,24.92
2023-02-13T10:57:47.560Z,22.63
2023-02-13T11:00:20.783Z,21.63
2023-02-13T11:02:48.441Z,21.73
2023-02-13T11:05:22.621Z,19.65
2023-02-13T11:07:49.945Z,22.23
2023-02-13T11:10:22.850Z,24.85
2023-02-13T11:12:51.243Z,19.45
2023-02-13T11:15:33.016Z,31.52
2023-02-13T11:18:13.073Z,33.10
2023-02-13T11:20:48.156Z,48.38
2023-02-13T11:23:30.680Z,27.63
2023-02-13T11:26:22.270Z,22.45
2023-02-13T11:31:24.051Z,25.80
2023-02-13T11:33:51.827Z,29.33
2023-02-13T11:36:35.264Z,31.17
2023-02-13T11:39:13.338Z,31.27
2023-02-13T11:41:43.924Z,31.05
2023-02-13T11:44:31.388Z,40.63
2023-02-13T11:47:00.881Z,38.25
2023-02-13T11:49:34.414Z,36.38
2023-02-13T11:52:07.704Z,34.22
2023-02-13T11:54:44.242Z,34.15
2023-02-13T11:57:29.968Z,33.25
2023-02-13T11:59:57.731Z,38.83
2023-02-13T12:02:29.400Z,29.48
2023-02-13T12:07:42.867Z,32.85
2023-02-13T12:10:15.641Z,30.88
2023-02-13T12:13:06.328Z,29.90
2023-02-13T12:15:35.453Z,35.72
2023-02-13T12:18:35.070Z,42.63
2023-02-13T12:21:31.976Z,36.17
2023-02-13T12:24:09.969Z,41.65
2023-02-13T12:26:48.426Z,45.88
2023-02-13T12:29:34.343Z,44.00
2023-02-13T12:32:15.623Z,43.25
2023-02-13T12:35:04.596Z,37.15
2023-02-13T12:37:55.216Z,42.55
2023-02-13T12:40:46.886Z,41.30
2023-02-13T12:46:04.810Z,41.85
2023-02-13T12:48:42.308Z,44.58
2023-02-13T12:51:21.376Z,49.13
2023-02-13T12:54:07.106Z,49.72
2023-02-13T12:56:34.123Z,43.97
2023-02-13T12:59:13.787Z,45.10
2023-02-13T13:01:49.503Z,41.38
2023-02-13T13:04:51.744Z,46.42
2023-02-13T13:07:24.659Z,47.83
2023-02-13T13:10:18.889Z,52.50
2023-02-13T13:13:14.876Z,40.10
2023-02-13T13:15:53.886Z,42.08
2023-02-13T13:18:42.339Z,38.97
2023-02-13T13:21:33.340Z,39.40
2023-02-13T13:24:29.986Z,41.70
2023-02-13T13:26:58.091Z,38.65
2023-02-13T13:29:31.821Z,40.35
2023-02-13T13:32:05.891Z,48.92
2023-02-13T13:34:35.760Z,41.53
2023-02-13T13:37:18.876Z,46.08
2023-02-13T13:39:52.578Z,49.72
2023-02-13T13:42:31.184Z,44.05
2023-02-13T13:45:18.258Z,43.78
2023-02-13T13:48:19.395Z,50.33
2023-02-13T13:50:47.443Z,74.32
2023-02-13T13:53:20.372Z,61.63
2023-02-13T13:55:47.548Z,70.18
2023-02-13T13:58:35.680Z,55.83
2023-02-13T14:01:14.900Z,46.75
2023-02-13T14:03:46.086Z,49.83
2023-02-13T14:06:40.188Z,59.10
2023-02-13T14:09:27.999Z,58.63
2023-02-13T14:11:56.683Z,59.97
2023-02-13T14:14:30.660Z,59.58
2023-02-13T14:17:04.719Z,70.55
2023-02-13T14:19:42.998Z,99.72
2023-02-13T14:22:18.837Z,54.03
2023-02-13T14:24:57.099Z,67.65
2023-02-13T14:27:42.188Z,75.28
2023-02-13T14:30:30.902Z,90.15
2023-02-13T14:33:02.770Z,65.88
2023-02-13T14:35:37.555Z,65.05
2023-02-13T14:38:21.853Z,64.82
2023-02-13T14:40:50.486Z,70.97
2023-02-13T14:43:27.845Z,62.80
2023-02-13T14:46:15.303Z,67.03
2023-02-13T14:49:30.060Z,61.53
2023-02-13T14:52:01.744Z,72.80
2023-02-13T14:54:49.441Z,72.25
2023-02-13T14:57:23.323Z,105.20
2023-02-13T14:59:56.469Z,89.30
2023-02-13T15:02:25.618Z,82.80
2023-02-13T15:04:57.449Z,81.40
2023-02-13T15:07:29.665Z,70.22
2023-02-13T15:10:02.136Z,94.00
2023-02-13T15:12:31.980Z,68.00
2023-02-13T15:15:01.916Z,66.55
2023-02-13T15:17:40.275Z,105.22
2023-02-13T15:20:18.239Z,95.80
2023-02-13T15:22:47.153Z,143.85
2023-02-13T15:25:29.290Z,126.35
2023-02-13T15:27:58.736Z,140.98
2023-02-13T15:30:36.792Z,157.15
2023-02-13T15:33:17.859Z,202.13
2023-02-13T15:35:45.137Z,176.55
2023-02-13T15:38:25.232Z,135.93
2023-02-13T15:40:55.840Z,125.60
2023-02-13T15:43:30.755Z,114.88
2023-02-13T15:46:03.145Z,107.25
2023-02-13T15:48:31.947Z,119.85
2023-02-13T15:50:59.385Z,124.40
2023-02-13T15:53:26.583Z,138.85
2023-02-13T15:56:00.375Z,130.85
2023-02-13T15:58:34.140Z,133.77
2023-02-13T16:01:05.482Z,128.68
2023-02-13T16:06:00.925Z,136.45
2023-02-13T16:08:29.680Z,159.88
2023-02-13T16:11:20.848Z,125.85
2023-02-13T16:14:00.324Z,135.57
2023-02-13T16:16:29.337Z,150.88
2023-02-13T16:18:56.757Z,130.68
2023-02-13T16:21:31.068Z,124.80
2023-02-13T16:24:03.627Z,137.60
2023-02-13T16:26:31.539Z,175.45
2023-02-13T16:28:58.490Z,178.57
2023-02-13T16:31:25.763Z,177.70
2023-02-13T16:33:52.676Z,217.38
2023-02-13T16:36:28.424Z,232.27
2023-02-13T16:39:01.103Z,230.77
2023-02-13T16:41:33.195Z,397.23
2023-02-13T16:44:04.780Z,335.75
2023-02-13T16:46:35.822Z,345.15
2023-02-13T16:49:15.252Z,326.30
2023-02-13T16:51:56.536Z,303.88
2023-02-13T16:54:29.856Z,266.42
2023-02-13T16:57:07.264Z,308.63
2023-02-13T17:00:25.587Z,264.00
2023-02-13T17:02:59.453Z,228.50
2023-02-13T17:05:30.221Z,244.65
2023-02-13T17:07:59.539Z,479.15
2023-02-13T17:10:37.933Z,200.07
2023-02-13T17:13:13.732Z,156.63
2023-02-13T17:15:46.253Z,130.10
2023-02-13T17:18:13.814Z,201.15
2023-02-13T17:20:43.852Z,209.88
2023-02-13T17:23:24.097Z,195.70
2023-02-13T17:25:55.098Z,203.57
2023-02-13T17:28:29.166Z,160.32
2023-02-13T17:30:58.725Z,164.77
2023-02-13T17:33:29.206Z,165.38
2023-02-13T17:35:56.567Z,145.43
2023-02-13T17:38:23.629Z,192.07
2023-02-13T17:41:05.261Z,208.65
2023-02-13T17:43:38.828Z,251.85
2023-02-13T17:46:06.422Z,277.70
2023-02-13T17:48:37.282Z,378.58
2023-02-13T17:51:10.452Z,404.42
2023-02-13T17:53:38.133Z,375.77
2023-02-13T18:01:14.473Z,239.82
2023-02-13T18:03:43.766Z,255.73
2023-02-13T18:06:13.068Z,320.95
2023-02-13T18:08:39.987Z,298.33
2023-02-13T18:11:11.610Z,275.23
2023-02-13T18:13:38.532Z,184.27
2023-02-13T18:16:09.531Z,168.23
2023-02-13T18:18:36.468Z,162.85
2023-02-13T18:21:03.330Z,148.52
2023-02-13T18:23:30.273Z,154.60
2023-02-13T18:26:10.582Z,171.48
2023-02-13T18:28:38.035Z,174.63
2023-02-13T18:31:05.092Z,162.48
2023-02-13T18:33:32.439Z,152.00
2023-02-13T18:36:01.787Z,166.65
2023-02-13T18:38:29.406Z,120.93
2023-02-13T18:41:23.338Z,133.65
2023-02-13T18:43:50.260Z,119.63
2023-02-13T18:46:17.343Z,127.85
2023-02-13T18:48:44.422Z,153.90
2023-02-13T18:51:38.166Z,148.80
2023-02-13T18:54:05.219Z,196.70
2023-02-13T18:56:32.457Z,207.27
2023-02-13T18:58:59.900Z,209.60
2023-02-13T19:01:26.737Z,200.10
2023-02-13T19:03:54.695Z,203.07
2023-02-13T19:06:24.471Z,174.00
2023-02-13T19:08:51.585Z,169.50
2023-02-13T19:11:20.633Z,160.98
2023-02-13T19:13:47.796Z,179.30
2023-02-13T19:16:19.416Z,171.10
2023-02-13T19:18:56.372Z,158.20
2023-02-13T19:21:26.578Z,105.50
2023-02-13T19:23:53.430Z,108.23
2023-02-13T19:26:28.286Z,106.88
2023-02-13T19:28:56.827Z,107.95
2023-02-13T19:31:27.150Z,122.57
2023-02-13T19:33:54.523Z,128.20
2023-02-13T19:36:24.031Z,113.63
2023-02-13T19:38:58.286Z,113.47
2023-02-13T19:41:25.702Z,106.57
2023-02-13T19:43:55.987Z,110.80
2023-02-13T19:46:26.251Z,124.97
2023-02-13T19:48:53.477Z,120.22
2023-02-13T19:51:24.356Z,115.70
2023-02-13T19:53:59.489Z,156.55
2023-02-13T19:56:28.122Z,170.50
2023-02-13T19:59:02.973Z,159.02
2023-02-13T20:01:30.766Z,164.68
2023-02-13T20:03:57.705Z,167.05
2023-02-13T20:06:28.341Z,157.43
2023-02-13T20:08:58.760Z,182.95
2023-02-13T20:11:26.221Z,181.18
2023-02-13T20:13:57.551Z,175.65
2023-02-13T20:16:24.891Z,164.35
2023-02-13T20:18:52.068Z,166.07
2023-02-13T20:21:20.086Z,354.52
2023-02-13T20:23:51.746Z,208.43
2023-02-13T20:26:34.836Z,169.55
2023-02-13T20:29:02.782Z,98.32
2023-02-13T20:31:31.440Z,170.93
2023-02-13T20:33:58.886Z,147.63
2023-02-13T20:36:29.096Z,140.50
2023-02-13T20:38:59.637Z,126.60
2023-02-13T20:41:31.474Z,152.88
2023-02-13T20:44:00.417Z,183.32
2023-02-13T20:46:30.944Z,176.80
2023-02-13T20:48:58.184Z,169.05
2023-02-13T20:51:25.252Z,163.73
2023-02-13T20:53:52.179Z,209.07
2023-02-13T20:56:21.516Z,150.05
2023-02-13T20:58:49.895Z,128.65
2023-02-13T21:01:20.546Z,165.40
2023-02-13T21:03:53.569Z,152.07
2023-02-13T21:06:34.602Z,169.57
2023-02-13T21:09:03.037Z,176.52
2023-02-13T21:11:31.243Z,139.95
2023-02-13T21:13:58.653Z,153.63
2023-02-13T21:16:28.775Z,133.63
2023-02-13T21:18:58.761Z,95.05
2023-02-13T21:21:28.767Z,145.25
2023-02-13T21:23:57.286Z,132.10
2023-02-13T21:26:24.868Z,154.50
2023-02-13T21:28:52.328Z,156.63
2023-02-13T21:31:23.907Z,135.52
2023-02-13T21:33:51.984Z,150.48
2023-02-13T21:36:19.520Z,186.73
2023-02-13T21:38:46.335Z,194.07
2023-02-13T21:41:16.154Z,203.55
2023-02-13T21:43:47.086Z,150.38
2023-02-13T21:46:21.318Z,159.40
2023-02-13T21:48:53.111Z,147.23
2023-02-13T21:51:20.741Z,140.82
2023-02-13T21:53:48.660Z,146.90
2023-02-13T21:56:21.416Z,142.52
2023-02-13T21:58:49.105Z,139.60
2023-02-13T22:01:25.975Z,142.40
2023-02-13T22:04:00.150Z,144.57
2023-02-13T22:06:29.216Z,125.72
2023-02-13T22:09:04.441Z,130.90
2023-02-13T22:11:31.552Z,129.60
2023-02-13T22:14:25.495Z,153.65
2023-02-13T22:16:55.009Z,157.00
2023-02-13T22:19:21.908Z,166.50
2023-02-13T22:21:48.993Z,151.07
2023-02-13T22:24:16.156Z,142.48
2023-02-13T22:26:45.514Z,188.68
2023-02-13T22:29:14.707Z,121.97
2023-02-13T22:31:42.134Z,125.68
2023-02-13T22:34:12.349Z,113.20
2023-02-13T22:36:39.509Z,73.28
2023-02-13T22:39:08.264Z,99.38
2023-02-13T22:41:35.136Z,96.72
2023-02-13T22:44:01.945Z,77.93
2023-02-13T22:46:33.304Z,72.63
2023-02-13T22:49:00.893Z,77.93
2023-02-13T22:51:31.689Z,70.38
2023-02-13T22:54:00.149Z,79.90
2023-02-13T22:56:29.304Z,80.88
2023-02-13T22:58:56.968Z,75.13
2023-02-13T23:01:25.556Z,79.28
2023-02-13T23:03:52.673Z,72.45
2023-02-13T23:06:19.857Z,71.78
2023-02-13T23:08:49.181Z,78.18
2023-02-13T23:11:35.448Z,75.00
2023-02-13T23:14:02.811Z,70.68
2023-02-13T23:16:52.797Z,83.45
2023-02-13T23:19:21.050Z,77.78
2023-02-13T23:21:48.013Z,73.28
2023-02-13T23:24:15.265Z,74.93
2023-02-13T23:26:42.200Z,78.13
2023-02-13T23:29:09.564Z,71.75
2023-02-13T23:31:36.594Z,73.13
2023-02-13T23:34:03.693Z,76.60
2023-02-13T23:36:30.542Z,77.40
2023-02-13T23:38:57.394Z,85.78
2023-02-13T23:41:24.324Z,94.07
2023-02-13T23:43:51.248Z,97.13
2023-02-13T23:46:18.211Z,81.95
2023-02-13T23:48:46.148Z,81.28
2023-02-13T23:51:13.725Z,84.72
2023-02-13T23:53:40.659Z,77.05
2023-02-13T23:56:07.877Z,83.18
2023-02-13T23:58:34.983Z,80.65
